createdAt,value
2019-04-25T00:00:16.445Z,11.11
2019-04-25T00:01:16.393Z,11.07
2019-04-25T00:02:16.449Z,11.03
2019-04-25T00:03:16.380Z,11.00
2019-04-25T00:04:16.466Z,11.02
2019-04-25T00:05:16.392Z,11.05
2019-04-25T00:06:16.397Z,11.06
2019-04-25T00:07:16.372Z,11.06
2019-04-25T00:08:16.409Z,11.09
2019-04-25T00:09:16.465Z,11.11
2019-04-25T00:10:16.411Z,11.11
2019-04-25T00:11:16.438Z,11.11
2019-04-25T00:12:16.503Z,11.10
2019-04-25T00:13:16.396Z,11.07
2019-04-25T00:14:16.402Z,11.03
2019-04-25T00:15:16.471Z,10.97
2019-04-25T00:16:16.491Z,10.90
2019-04-25T00:17:16.406Z,10.83
2019-04-25T00:18:16.413Z,10.80
2019-04-25T00:19:16.472Z,10.81
2019-04-25T00:20:16.408Z,10.83
2019-04-25T00:21:16.402Z,10.83
2019-04-25T00:22:16.475Z,10.83
2019-04-25T00:23:16.483Z,10.83
2019-04-25T00:24:16.465Z,10.79
2019-04-25T00:25:17.920Z,10.74
2019-04-25T00:26:16.406Z,10.68
2019-04-25T00:27:16.466Z,10.64
2019-04-25T00:28:16.399Z,10.60
2019-04-25T00:29:16.468Z,10.56
2019-04-25T00:30:16.410Z,10.52
2019-04-25T00:31:16.408Z,10.46
2019-04-25T00:32:16.468Z,10.43
2019-04-25T00:33:16.475Z,10.42
2019-04-25T00:34:16.415Z,10.39
2019-04-25T00:35:16.414Z,10.35
2019-04-25T00:36:16.418Z,10.30
2019-04-25T00:37:16.499Z,10.23
2019-04-25T00:38:16.430Z,10.16
2019-04-25T00:39:16.424Z,10.06
2019-04-25T00:40:16.512Z,9.97
2019-04-25T00:41:16.503Z,9.83
2019-04-25T00:42:16.423Z,9.72
2019-04-25T00:43:16.500Z,9.62
2019-04-25T00:44:16.367Z,9.55
2019-04-25T00:45:16.504Z,9.50
2019-04-25T00:46:16.479Z,9.42
2019-04-25T00:47:16.419Z,9.32
2019-04-25T00:48:16.480Z,9.25
2019-04-25T00:49:16.501Z,9.18
2019-04-25T00:50:16.456Z,9.11
2019-04-25T00:51:16.420Z,9.01
2019-04-25T00:52:16.483Z,8.93
2019-04-25T00:53:16.424Z,8.85
2019-04-25T00:54:16.431Z,8.78
2019-04-25T00:55:26.167Z,8.69
2019-04-25T00:56:16.479Z,8.60
2019-04-25T00:57:16.487Z,8.51
2019-04-25T00:58:16.479Z,8.45
2019-04-25T00:59:16.432Z,8.39
2019-04-25T01:00:16.420Z,8.35
2019-04-25T01:01:16.428Z,8.31
2019-04-25T01:02:16.394Z,8.26
2019-04-25T01:03:16.489Z,8.20
2019-04-25T01:04:16.496Z,8.15
2019-04-25T01:05:16.391Z,8.11
2019-04-25T01:06:16.511Z,8.06
2019-04-25T01:07:16.436Z,8.09
2019-04-25T01:08:16.499Z,8.12
2019-04-25T01:09:16.437Z,8.17
2019-04-25T01:10:16.516Z,8.24
2019-04-25T01:11:16.444Z,8.30
2019-04-25T01:12:16.452Z,8.42
2019-04-25T01:13:16.442Z,8.46
2019-04-25T01:14:16.483Z,8.54
2019-04-25T01:15:16.426Z,8.67
2019-04-25T01:16:16.440Z,8.80
2019-04-25T01:17:16.435Z,8.96
2019-04-25T01:18:16.513Z,9.07
2019-04-25T01:19:16.438Z,9.19
2019-04-25T01:20:16.514Z,9.28
2019-04-25T01:21:16.508Z,9.34
2019-04-25T01:22:16.439Z,9.38
2019-04-25T01:23:16.439Z,9.39
2019-04-25T01:24:16.505Z,9.38
2019-04-25T01:25:16.458Z,9.40
2019-04-25T01:26:16.454Z,9.42
2019-04-25T01:27:16.543Z,9.47
2019-04-25T01:28:16.450Z,9.50
2019-04-25T01:29:16.535Z,9.50
2019-04-25T01:30:16.459Z,9.47
2019-04-25T01:31:16.513Z,9.43
2019-04-25T01:32:16.482Z,9.39
2019-04-25T01:33:16.519Z,9.39
2019-04-25T01:34:16.459Z,9.31
2019-04-25T01:35:16.405Z,9.27
2019-04-25T01:36:16.508Z,9.25
2019-04-25T01:37:16.524Z,9.23
2019-04-25T01:38:16.430Z,9.25
2019-04-25T01:39:16.477Z,9.25
2019-04-25T01:40:16.425Z,9.25
2019-04-25T01:41:16.519Z,9.30
2019-04-25T01:42:16.449Z,9.28
2019-04-25T01:43:16.408Z,9.22
2019-04-25T01:44:16.424Z,9.19
2019-04-25T01:45:16.552Z,9.13
2019-04-25T01:46:16.538Z,9.09
2019-04-25T01:47:16.498Z,9.04
2019-04-25T01:48:16.542Z,8.98
2019-04-25T01:49:16.466Z,8.94
2019-04-25T01:50:16.542Z,8.97
2019-04-25T01:51:16.465Z,8.94
2019-04-25T01:52:16.470Z,8.89
2019-04-25T01:53:16.485Z,8.87
2019-04-25T01:54:16.469Z,8.87
2019-04-25T01:55:16.544Z,8.85
2019-04-25T01:56:16.480Z,8.82
2019-04-25T01:57:16.543Z,8.80
2019-04-25T01:58:16.545Z,8.79
2019-04-25T01:59:16.474Z,8.76
2019-04-25T02:00:16.486Z,8.75
2019-04-25T02:01:16.537Z,8.71
2019-04-25T02:02:16.559Z,8.69
2019-04-25T02:03:16.546Z,8.67
2019-04-25T02:04:16.494Z,8.64
2019-04-25T02:05:16.557Z,8.60
2019-04-25T02:06:16.588Z,8.57
2019-04-25T02:07:16.517Z,8.54
2019-04-25T02:08:16.562Z,8.49
2019-04-25T02:09:16.500Z,8.39
2019-04-25T02:10:16.437Z,8.34
2019-04-25T02:11:16.562Z,8.27
2019-04-25T02:12:16.564Z,8.22
2019-04-25T02:13:16.570Z,8.16
2019-04-25T02:14:16.570Z,8.13
2019-04-25T02:15:16.509Z,8.08
2019-04-25T02:16:16.504Z,7.99
2019-04-25T02:17:16.551Z,7.89
2019-04-25T02:18:16.504Z,7.83
2019-04-25T02:19:16.493Z,7.76
2019-04-25T02:20:16.488Z,7.71
2019-04-25T02:21:16.489Z,7.67
2019-04-25T02:22:16.568Z,7.63
2019-04-25T02:23:16.494Z,7.60
2019-04-25T02:24:16.524Z,7.60
2019-04-25T02:25:16.480Z,7.60
2019-04-25T02:26:18.579Z,7.63
2019-04-25T02:27:16.476Z,7.60
2019-04-25T02:28:16.609Z,7.55
2019-04-25T02:29:16.559Z,7.49
2019-04-25T02:30:16.528Z,7.44
2019-04-25T02:31:18.331Z,7.41
2019-04-25T02:32:16.458Z,7.33
2019-04-25T02:33:16.499Z,7.29
2019-04-25T02:34:18.144Z,7.27
2019-04-25T02:35:16.530Z,7.31
2019-04-25T02:36:16.463Z,7.33
2019-04-25T02:37:16.465Z,7.31
2019-04-25T02:38:16.983Z,7.31
2019-04-25T02:39:16.525Z,7.35
2019-04-25T02:40:16.495Z,7.34
2019-04-25T02:41:16.558Z,7.33
2019-04-25T02:42:17.008Z,7.30
2019-04-25T02:43:16.518Z,7.27
2019-04-25T02:44:16.515Z,7.30
2019-04-25T02:45:16.815Z,7.31
2019-04-25T02:46:16.521Z,7.33
2019-04-25T02:47:16.594Z,7.31
2019-04-25T02:48:16.515Z,7.30
2019-04-25T02:49:29.781Z,7.27
2019-04-25T02:50:16.591Z,7.23
2019-04-25T02:51:16.601Z,7.19
2019-04-25T02:52:18.133Z,7.18
2019-04-25T02:53:16.526Z,7.19
2019-04-25T02:54:16.584Z,7.22
2019-04-25T02:55:30.999Z,7.23
2019-04-25T02:56:30.464Z,7.24
2019-04-25T02:57:16.596Z,7.26
2019-04-25T02:58:16.516Z,7.26
2019-04-25T02:59:16.606Z,7.27
2019-04-25T03:00:16.593Z,7.26
2019-04-25T03:01:22.267Z,7.27
2019-04-25T03:02:16.519Z,7.29
2019-04-25T03:03:16.601Z,7.30
2019-04-25T03:04:16.616Z,7.33
2019-04-25T03:05:16.527Z,7.33
2019-04-25T03:06:16.514Z,7.34
2019-04-25T03:07:17.554Z,7.37
2019-04-25T03:08:16.590Z,7.40
2019-04-25T03:09:16.519Z,7.38
2019-04-25T03:10:16.592Z,7.35
2019-04-25T03:11:16.514Z,7.33
2019-04-25T03:12:29.076Z,7.31
2019-04-25T03:13:16.529Z,7.29
2019-04-25T03:14:16.540Z,7.26
2019-04-25T03:15:16.660Z,7.22
2019-04-25T03:16:16.606Z,7.19
2019-04-25T03:17:16.534Z,7.18
2019-04-25T03:18:16.606Z,7.18
2019-04-25T03:19:16.607Z,7.13
2019-04-25T03:20:16.619Z,7.15
2019-04-25T03:21:17.621Z,7.09
2019-04-25T03:22:16.619Z,7.08
2019-04-25T03:23:16.626Z,7.07
2019-04-25T03:24:17.055Z,7.01
2019-04-25T03:25:17.666Z,6.94
2019-04-25T03:26:16.614Z,6.89
2019-04-25T03:27:16.536Z,6.79
2019-04-25T03:28:16.605Z,6.74
2019-04-25T03:29:16.617Z,6.70
2019-04-25T03:30:17.790Z,6.64
2019-04-25T03:31:22.578Z,6.60
2019-04-25T03:32:19.897Z,6.51
2019-04-25T03:33:19.563Z,6.47
2019-04-25T03:34:20.393Z,6.38
2019-04-25T03:35:16.556Z,6.31
2019-04-25T03:36:17.145Z,6.26
2019-04-25T03:37:16.545Z,6.25
2019-04-25T03:38:16.628Z,6.20
2019-04-25T03:39:16.677Z,6.16
2019-04-25T03:40:16.631Z,6.16
2019-04-25T03:41:16.621Z,6.20
2019-04-25T03:42:16.550Z,6.22
2019-04-25T03:43:16.614Z,6.19
2019-04-25T03:44:16.558Z,6.14
2019-04-25T03:45:16.611Z,6.06
2019-04-25T03:46:16.617Z,6.03
2019-04-25T03:47:16.539Z,6.03
2019-04-25T03:48:16.616Z,6.00
2019-04-25T03:49:16.616Z,6.00
2019-04-25T03:50:16.552Z,6.03
2019-04-25T03:51:16.616Z,6.04
2019-04-25T03:52:16.614Z,6.04
2019-04-25T03:53:16.548Z,6.03
2019-04-25T03:54:16.615Z,5.99
2019-04-25T03:55:16.628Z,5.95
2019-04-25T03:56:16.637Z,5.89
2019-04-25T03:57:16.636Z,5.84
2019-04-25T03:58:16.561Z,5.79
2019-04-25T03:59:16.635Z,5.78
2019-04-25T04:00:16.560Z,5.75
2019-04-25T04:01:16.632Z,5.71
2019-04-25T04:02:16.562Z,5.70
2019-04-25T04:03:16.698Z,5.64
2019-04-25T04:04:16.565Z,5.62
2019-04-25T04:05:16.572Z,5.57
2019-04-25T04:06:16.645Z,5.56
2019-04-25T04:07:16.570Z,5.52
2019-04-25T04:08:16.565Z,5.48
2019-04-25T04:09:16.606Z,5.45
2019-04-25T04:10:16.641Z,5.46
2019-04-25T04:11:16.673Z,5.51
2019-04-25T04:12:16.581Z,5.53
2019-04-25T04:13:16.589Z,5.53
2019-04-25T04:14:16.573Z,5.52
2019-04-25T04:15:16.588Z,5.52
2019-04-25T04:16:16.647Z,5.51
2019-04-25T04:17:16.663Z,5.52
2019-04-25T04:18:17.370Z,5.56
2019-04-25T04:19:16.654Z,5.56
2019-04-25T04:20:16.578Z,5.56
2019-04-25T04:21:17.393Z,5.52
2019-04-25T04:22:16.576Z,5.51
2019-04-25T04:23:16.597Z,5.48
2019-04-25T04:24:16.577Z,5.55
2019-04-25T04:25:16.588Z,5.59
2019-04-25T04:26:16.578Z,5.63
2019-04-25T04:27:16.830Z,5.62
2019-04-25T04:28:16.583Z,5.64
2019-04-25T04:29:16.674Z,5.68
2019-04-25T04:30:16.649Z,5.71
2019-04-25T04:31:16.666Z,5.75
2019-04-25T04:32:17.388Z,5.73
2019-04-25T04:33:29.599Z,5.74
2019-04-25T04:34:16.981Z,5.71
2019-04-25T04:35:17.432Z,5.68
2019-04-25T04:36:17.753Z,5.63
2019-04-25T04:37:17.507Z,5.62
2019-04-25T04:38:16.656Z,5.62
2019-04-25T04:39:17.739Z,5.59
2019-04-25T04:40:17.634Z,5.56
2019-04-25T04:41:16.595Z,5.56
2019-04-25T04:42:16.659Z,5.57
2019-04-25T04:43:16.667Z,5.63
2019-04-25T04:44:16.599Z,5.74
2019-04-25T04:45:16.676Z,5.82
2019-04-25T04:46:18.441Z,5.85
2019-04-25T04:47:16.713Z,5.86
2019-04-25T04:48:16.764Z,5.88
2019-04-25T04:49:16.666Z,5.92
2019-04-25T04:50:16.732Z,5.97
2019-04-25T04:51:16.944Z,6.06
2019-04-25T04:52:16.987Z,6.15
2019-04-25T04:53:17.213Z,6.19
2019-04-25T04:54:17.127Z,6.27
2019-04-25T04:55:17.595Z,6.31
2019-04-25T04:56:17.561Z,6.33
2019-04-25T04:57:27.852Z,6.37
2019-04-25T04:58:17.650Z,6.40
2019-04-25T04:59:16.649Z,6.45
2019-04-25T05:00:16.922Z,6.49
2019-04-25T05:01:16.726Z,6.55
2019-04-25T05:02:17.382Z,6.57
2019-04-25T05:03:16.948Z,6.64
2019-04-25T05:04:17.164Z,6.70
2019-04-25T05:05:17.159Z,6.75
2019-04-25T05:06:17.367Z,6.81
2019-04-25T05:07:17.460Z,6.89
2019-04-25T05:08:17.295Z,6.93
2019-04-25T05:09:16.613Z,6.93
2019-04-25T05:10:18.658Z,6.95
2019-04-25T05:11:17.046Z,6.98
2019-04-25T05:12:17.445Z,7.05
2019-04-25T05:13:17.074Z,7.11
2019-04-25T05:14:17.405Z,7.15
2019-04-25T05:15:17.907Z,7.22
2019-04-25T05:16:17.677Z,7.31
2019-04-25T05:17:16.552Z,7.38
2019-04-25T05:18:31.599Z,7.42
2019-04-25T05:19:16.837Z,7.46
2019-04-25T05:20:17.829Z,7.59
2019-04-25T05:21:17.129Z,7.67
2019-04-25T05:22:16.865Z,7.81
2019-04-25T05:23:17.129Z,7.83
2019-04-25T05:24:17.348Z,7.86
2019-04-25T05:25:17.737Z,7.97
2019-04-25T05:26:17.173Z,8.09
2019-04-25T05:27:30.600Z,8.20
2019-04-25T05:28:18.159Z,8.27
2019-04-25T05:29:21.021Z,8.35
2019-04-25T05:30:17.707Z,8.43
2019-04-25T05:31:17.286Z,8.46
2019-04-25T05:32:17.286Z,8.49
2019-04-25T05:33:19.724Z,8.49
2019-04-25T05:34:17.243Z,8.49
2019-04-25T05:35:16.590Z,8.50
2019-04-25T05:36:17.554Z,8.54
2019-04-25T05:37:17.537Z,8.60
2019-04-25T05:38:17.605Z,8.69
2019-04-25T05:39:18.078Z,8.76
2019-04-25T05:40:17.170Z,8.80
2019-04-25T05:41:16.898Z,8.83
2019-04-25T05:42:17.221Z,8.86
2019-04-25T05:43:16.620Z,8.90
2019-04-25T05:44:16.917Z,8.94
2019-04-25T05:45:18.548Z,9.01
2019-04-25T05:46:16.907Z,9.05
2019-04-25T05:47:17.452Z,9.09
2019-04-25T05:48:17.197Z,9.19
2019-04-25T05:49:17.165Z,9.34
2019-04-25T05:50:16.622Z,9.50
2019-04-25T05:51:17.412Z,9.69
2019-04-25T05:52:17.514Z,9.86
2019-04-25T05:53:17.687Z,10.05
2019-04-25T05:54:16.702Z,10.16
2019-04-25T05:55:18.991Z,10.20
2019-04-25T05:56:16.617Z,10.24
2019-04-25T05:57:16.678Z,10.31
2019-04-25T05:58:16.930Z,10.35
2019-04-25T05:59:17.927Z,10.46
2019-04-25T06:00:17.949Z,10.54
2019-04-25T06:01:17.203Z,10.63
2019-04-25T06:02:17.795Z,10.72
2019-04-25T06:03:17.267Z,10.90
2019-04-25T06:04:17.849Z,11.17
2019-04-25T06:05:17.435Z,11.35
2019-04-25T06:06:17.551Z,11.36
2019-04-25T06:07:17.902Z,11.50
2019-04-25T06:08:17.468Z,11.60
2019-04-25T06:09:17.597Z,11.69
2019-04-25T06:10:17.404Z,11.72
2019-04-25T06:11:17.911Z,11.83
2019-04-25T06:12:18.110Z,11.86
2019-04-25T06:13:17.356Z,12.01
2019-04-25T06:14:18.283Z,12.10
2019-04-25T06:15:18.328Z,12.28
2019-04-25T06:16:16.707Z,12.39
2019-04-25T06:17:16.585Z,12.55
2019-04-25T06:18:16.650Z,12.68
2019-04-25T06:19:19.605Z,12.72
2019-04-25T06:20:16.611Z,12.69
2019-04-25T06:21:16.646Z,12.75
2019-04-25T06:22:16.616Z,12.89
2019-04-25T06:23:16.682Z,12.91
2019-04-25T06:24:16.702Z,13.12
2019-04-25T06:25:16.682Z,13.17
2019-04-25T06:26:24.834Z,13.20
2019-04-25T06:27:16.660Z,13.21
2019-04-25T06:28:16.612Z,13.20
2019-04-25T06:29:16.755Z,13.17
2019-04-25T06:30:16.677Z,13.17
2019-04-25T06:31:16.603Z,13.17
2019-04-25T06:32:16.731Z,13.28
2019-04-25T06:33:16.692Z,13.36
2019-04-25T06:34:16.731Z,13.46
2019-04-25T06:35:16.738Z,13.54
2019-04-25T06:36:16.674Z,13.49
2019-04-25T06:37:16.694Z,13.38
2019-04-25T06:38:16.713Z,13.47
2019-04-25T06:39:16.675Z,13.50
2019-04-25T06:40:16.680Z,13.59
2019-04-25T06:41:16.746Z,13.66
2019-04-25T06:42:16.683Z,13.68
2019-04-25T06:43:16.691Z,13.70
2019-04-25T06:44:16.683Z,13.76
2019-04-25T06:45:16.747Z,13.88
2019-04-25T06:46:16.683Z,14.04
2019-04-25T06:47:16.826Z,14.11
2019-04-25T06:48:16.684Z,13.84
2019-04-25T06:49:16.689Z,13.84
2019-04-25T06:50:16.685Z,13.98
2019-04-25T06:51:16.689Z,14.17
2019-04-25T06:52:16.751Z,14.21
2019-04-25T06:53:16.686Z,14.21
2019-04-25T06:54:16.754Z,14.29
2019-04-25T06:55:16.753Z,14.53
2019-04-25T06:56:16.748Z,14.73
2019-04-25T06:57:16.690Z,14.86
2019-04-25T06:58:16.753Z,14.84
2019-04-25T06:59:16.749Z,14.92
2019-04-25T07:00:16.691Z,14.94
2019-04-25T07:01:16.679Z,15.02
2019-04-25T07:02:16.752Z,15.17
2019-04-25T07:03:16.757Z,15.36
2019-04-25T07:04:16.666Z,15.35
2019-04-25T07:05:26.520Z,15.35
2019-04-25T07:06:16.775Z,15.46
2019-04-25T07:07:16.694Z,15.31
2019-04-25T07:08:16.766Z,15.22
2019-04-25T07:09:16.779Z,15.28
2019-04-25T07:10:16.792Z,15.42
2019-04-25T07:11:16.712Z,15.50
2019-04-25T07:12:16.705Z,15.55
2019-04-25T07:13:16.788Z,15.70
2019-04-25T07:14:16.770Z,15.77
2019-04-25T07:15:16.776Z,15.88
2019-04-25T07:16:16.771Z,16.14
2019-04-25T07:17:16.775Z,16.35
2019-04-25T07:18:16.773Z,16.41
2019-04-25T07:19:17.610Z,16.61
2019-04-25T07:20:16.710Z,16.83
2019-04-25T07:21:16.711Z,16.99
2019-04-25T07:22:16.713Z,17.16
2019-04-25T07:23:16.776Z,17.24
2019-04-25T07:24:17.580Z,17.29
2019-04-25T07:25:16.776Z,17.39
2019-04-25T07:26:16.781Z,17.39
2019-04-25T07:27:16.714Z,16.97
2019-04-25T07:28:24.193Z,16.72
2019-04-25T07:29:16.715Z,16.76
2019-04-25T07:30:26.944Z,16.80
2019-04-25T07:31:16.786Z,17.03
2019-04-25T07:32:16.786Z,17.08
2019-04-25T07:33:16.715Z,17.25
2019-04-25T07:34:16.788Z,17.31
2019-04-25T07:35:16.792Z,17.35
2019-04-25T07:36:16.720Z,17.31
2019-04-25T07:37:16.789Z,17.49
2019-04-25T07:38:16.793Z,17.61
2019-04-25T07:39:16.722Z,17.68
2019-04-25T07:40:16.790Z,17.72
2019-04-25T07:41:16.792Z,17.65
2019-04-25T07:42:16.799Z,17.69
2019-04-25T07:43:16.784Z,17.72
2019-04-25T07:44:16.826Z,17.73
2019-04-25T07:45:16.796Z,17.75
2019-04-25T07:46:16.797Z,17.72
2019-04-25T07:47:16.731Z,17.62
2019-04-25T07:48:16.797Z,17.75
2019-04-25T07:49:16.794Z,17.83
2019-04-25T07:50:16.796Z,17.98
2019-04-25T07:51:16.798Z,18.02
2019-04-25T07:52:16.798Z,18.14
2019-04-25T07:53:16.802Z,18.09
2019-04-25T07:54:16.798Z,18.13
2019-04-25T07:55:16.857Z,18.23
2019-04-25T07:56:16.729Z,18.17
2019-04-25T07:57:16.783Z,18.28
2019-04-25T07:58:16.726Z,18.54
2019-04-25T07:59:16.797Z,18.65
2019-04-25T08:00:16.719Z,18.66
2019-04-25T08:01:16.793Z,18.57
2019-04-25T08:02:16.738Z,18.40
2019-04-25T08:03:16.744Z,18.00
2019-04-25T08:04:16.721Z,17.64
2019-04-25T08:05:16.731Z,17.61
2019-04-25T08:06:16.808Z,17.83
2019-04-25T08:07:16.845Z,18.00
2019-04-25T08:08:16.810Z,18.17
2019-04-25T08:09:16.742Z,18.31
2019-04-25T08:10:16.813Z,18.50
2019-04-25T08:11:16.740Z,18.62
2019-04-25T08:12:16.755Z,18.70
2019-04-25T08:13:16.757Z,18.46
2019-04-25T08:14:16.745Z,18.12
2019-04-25T08:15:16.826Z,18.21
2019-04-25T08:16:16.734Z,18.12
2019-04-25T08:17:16.730Z,18.03
2019-04-25T08:18:16.807Z,18.16
2019-04-25T08:19:16.816Z,18.28
2019-04-25T08:20:16.813Z,18.50
2019-04-25T08:21:16.720Z,18.62
2019-04-25T08:22:16.730Z,18.48
2019-04-25T08:23:16.809Z,18.24
2019-04-25T08:24:16.842Z,18.25
2019-04-25T08:25:16.724Z,18.35
2019-04-25T08:26:16.757Z,18.16
2019-04-25T08:27:16.826Z,17.88
2019-04-25T08:28:16.828Z,18.05
2019-04-25T08:29:16.825Z,18.28
2019-04-25T08:30:16.760Z,18.41
2019-04-25T08:31:16.833Z,18.31
2019-04-25T08:32:16.761Z,18.38
2019-04-25T08:33:16.830Z,18.54
2019-04-25T08:34:16.759Z,18.64
2019-04-25T08:35:16.833Z,18.46
2019-04-25T08:36:16.747Z,18.18
2019-04-25T08:37:18.983Z,17.88
2019-04-25T08:38:16.827Z,17.76
2019-04-25T08:39:16.823Z,17.53
2019-04-25T08:40:16.826Z,17.55
2019-04-25T08:41:16.763Z,17.68
2019-04-25T08:42:16.769Z,17.66
2019-04-25T08:43:16.835Z,17.61
2019-04-25T08:44:16.755Z,17.42
2019-04-25T08:45:16.837Z,17.44
2019-04-25T08:46:16.711Z,17.46
2019-04-25T08:47:16.823Z,17.68
2019-04-25T08:48:16.714Z,17.76
2019-04-25T08:49:16.801Z,17.77
2019-04-25T08:50:26.954Z,17.71
2019-04-25T08:51:16.829Z,17.72
2019-04-25T08:52:16.836Z,17.66
2019-04-25T08:53:16.825Z,17.54
2019-04-25T08:54:16.744Z,17.53
2019-04-25T08:55:16.715Z,17.42
2019-04-25T08:56:16.847Z,17.31
2019-04-25T08:57:16.846Z,17.18
2019-04-25T08:58:16.788Z,17.22
2019-04-25T08:59:16.848Z,17.50
2019-04-25T09:00:16.851Z,17.66
2019-04-25T09:01:16.854Z,17.72
2019-04-25T09:02:16.780Z,17.84
2019-04-25T09:03:16.853Z,17.87
2019-04-25T09:04:16.784Z,18.06
2019-04-25T09:05:16.856Z,18.38
2019-04-25T09:06:16.825Z,18.70
2019-04-25T09:07:16.757Z,18.91
2019-04-25T09:08:16.842Z,19.05
2019-04-25T09:09:16.832Z,19.16
2019-04-25T09:10:16.724Z,19.27
2019-04-25T09:11:16.845Z,19.27
2019-04-25T09:12:16.787Z,19.32
2019-04-25T09:13:16.740Z,19.44
2019-04-25T09:14:16.724Z,19.61
2019-04-25T09:15:16.843Z,19.53
2019-04-25T09:16:16.789Z,19.70
2019-04-25T09:17:16.855Z,19.77
2019-04-25T09:18:16.927Z,19.76
2019-04-25T09:19:16.869Z,19.68
2019-04-25T09:20:16.880Z,19.83
2019-04-25T09:21:16.866Z,19.92
2019-04-25T09:22:16.868Z,19.80
2019-04-25T09:23:16.793Z,19.62
2019-04-25T09:24:16.796Z,19.68
2019-04-25T09:25:16.800Z,19.76
2019-04-25T09:26:16.880Z,19.85
2019-04-25T09:27:16.799Z,19.88
2019-04-25T09:28:16.870Z,19.98
2019-04-25T09:29:19.785Z,20.02
2019-04-25T09:30:16.801Z,20.03
2019-04-25T09:31:16.870Z,19.98
2019-04-25T09:32:16.939Z,20.13
2019-04-25T09:33:16.870Z,20.13
2019-04-25T09:34:16.871Z,20.02
2019-04-25T09:35:16.875Z,19.99
2019-04-25T09:36:16.874Z,20.02
2019-04-25T09:37:16.764Z,20.24
2019-04-25T09:38:16.877Z,20.45
2019-04-25T09:39:16.805Z,20.23
2019-04-25T09:40:16.879Z,20.14
2019-04-25T09:41:16.812Z,20.06
2019-04-25T09:42:16.846Z,20.01
2019-04-25T09:43:16.817Z,19.88
2019-04-25T09:44:16.882Z,20.01
2019-04-25T09:45:16.908Z,20.12
2019-04-25T09:46:16.825Z,20.31
2019-04-25T09:47:16.886Z,20.41
2019-04-25T09:48:16.827Z,20.27
2019-04-25T09:49:16.888Z,20.01
2019-04-25T09:50:16.898Z,19.72
2019-04-25T09:51:16.815Z,19.85
2019-04-25T09:52:16.814Z,20.14
2019-04-25T09:53:23.633Z,20.10
2019-04-25T09:54:16.897Z,20.10
2019-04-25T09:55:16.831Z,20.39
2019-04-25T09:56:16.896Z,20.80
2019-04-25T09:57:16.887Z,21.10
2019-04-25T09:58:16.832Z,21.20
2019-04-25T09:59:26.810Z,21.17
2019-04-25T10:00:16.897Z,21.08
2019-04-25T10:01:16.843Z,20.94
2019-04-25T10:02:16.899Z,20.94
2019-04-25T10:03:16.834Z,21.02
2019-04-25T10:04:16.894Z,20.79
2019-04-25T10:05:16.892Z,20.72
2019-04-25T10:06:16.831Z,20.42
2019-04-25T10:07:16.833Z,20.39
2019-04-25T10:08:16.829Z,20.31
2019-04-25T10:09:16.827Z,20.14
2019-04-25T10:10:16.957Z,20.06
2019-04-25T10:11:16.833Z,20.14
2019-04-25T10:12:16.905Z,20.17
2019-04-25T10:13:16.841Z,20.01
2019-04-25T10:14:16.925Z,20.01
2019-04-25T10:15:16.831Z,20.20
2019-04-25T10:16:16.774Z,20.42
2019-04-25T10:17:16.763Z,20.54
2019-04-25T10:18:16.824Z,20.83
2019-04-25T10:19:16.820Z,21.05
2019-04-25T10:20:16.834Z,21.38
2019-04-25T10:21:16.896Z,21.72
2019-04-25T10:22:16.888Z,22.02
2019-04-25T10:23:16.802Z,22.01
2019-04-25T10:24:16.848Z,21.87
2019-04-25T10:25:16.779Z,21.86
2019-04-25T10:26:16.907Z,21.87
2019-04-25T10:27:16.904Z,22.14
2019-04-25T10:28:16.825Z,22.34
2019-04-25T10:29:16.831Z,22.23
2019-04-25T10:30:21.643Z,22.12
2019-04-25T10:31:16.908Z,22.28
2019-04-25T10:32:16.904Z,22.48
2019-04-25T10:33:16.906Z,22.43
2019-04-25T10:34:16.832Z,22.72
2019-04-25T10:35:16.842Z,22.72
2019-04-25T10:36:16.849Z,22.79
2019-04-25T10:37:16.863Z,22.68
2019-04-25T10:38:16.919Z,22.68
2019-04-25T10:39:16.884Z,22.82
2019-04-25T10:40:16.919Z,22.68
2019-04-25T10:41:16.860Z,22.59
2019-04-25T10:42:16.926Z,22.70
2019-04-25T10:43:16.923Z,22.75
2019-04-25T10:44:16.923Z,22.79
2019-04-25T10:45:23.116Z,22.94
2019-04-25T10:46:16.928Z,23.15
2019-04-25T10:47:16.860Z,23.24
2019-04-25T10:48:16.867Z,22.86
2019-04-25T10:49:16.856Z,22.79
2019-04-25T10:50:16.883Z,22.71
2019-04-25T10:51:16.930Z,22.79
2019-04-25T10:52:16.866Z,22.82
2019-04-25T10:53:16.929Z,22.95
2019-04-25T10:54:16.901Z,22.95
2019-04-25T10:55:16.869Z,22.71
2019-04-25T10:56:16.857Z,22.70
2019-04-25T10:57:16.941Z,22.72
2019-04-25T10:58:16.861Z,22.70
2019-04-25T10:59:16.921Z,22.75
2019-04-25T11:00:16.806Z,22.83
2019-04-25T11:01:16.826Z,22.70
2019-04-25T11:02:16.964Z,22.54
2019-04-25T11:03:16.863Z,22.70
2019-04-25T11:04:16.867Z,22.77
2019-04-25T11:05:16.932Z,22.70
2019-04-25T11:06:16.931Z,22.61
2019-04-25T11:07:16.855Z,22.49
2019-04-25T11:08:17.011Z,22.24
2019-04-25T11:09:16.843Z,22.16
2019-04-25T11:10:16.936Z,22.12
2019-04-25T11:11:16.933Z,22.17
2019-04-25T11:12:16.937Z,22.23
2019-04-25T11:13:16.936Z,22.23
2019-04-25T11:14:16.889Z,22.25
2019-04-25T11:15:16.850Z,22.08
2019-04-25T11:16:16.888Z,22.16
2019-04-25T11:17:16.965Z,22.14
2019-04-25T11:18:16.955Z,22.06
2019-04-25T11:19:16.859Z,21.93
2019-04-25T11:20:16.960Z,21.93
2019-04-25T11:21:16.890Z,22.09
2019-04-25T11:22:16.885Z,22.23
2019-04-25T11:23:16.959Z,22.42
2019-04-25T11:24:16.887Z,22.48
2019-04-25T11:25:16.954Z,22.46
2019-04-25T11:26:16.870Z,22.54
2019-04-25T11:27:16.950Z,22.68
2019-04-25T11:28:16.871Z,22.72
2019-04-25T11:29:16.947Z,22.70
2019-04-25T11:30:16.944Z,22.80
2019-04-25T11:31:16.884Z,22.87
2019-04-25T11:32:19.703Z,22.79
2019-04-25T11:33:16.962Z,22.61
2019-04-25T11:34:16.976Z,22.57
2019-04-25T11:35:16.865Z,22.45
2019-04-25T11:36:16.895Z,22.46
2019-04-25T11:37:16.850Z,22.48
2019-04-25T11:38:16.832Z,22.59
2019-04-25T11:39:16.957Z,22.59
2019-04-25T11:40:16.895Z,22.71
2019-04-25T11:41:16.896Z,22.65
2019-04-25T11:42:16.950Z,22.72
2019-04-25T11:43:16.827Z,22.72
2019-04-25T11:44:16.901Z,22.82
2019-04-25T11:45:16.969Z,22.79
2019-04-25T11:46:16.893Z,22.75
2019-04-25T11:47:16.898Z,22.68
2019-04-25T11:48:16.962Z,22.64
2019-04-25T11:49:16.888Z,22.75
2019-04-25T11:50:16.857Z,22.76
2019-04-25T11:51:16.976Z,22.64
2019-04-25T11:52:26.860Z,22.57
2019-04-25T11:53:16.965Z,22.43
2019-04-25T11:54:16.962Z,22.46
2019-04-25T11:55:16.969Z,22.56
2019-04-25T11:56:16.981Z,22.57
2019-04-25T11:57:17.000Z,22.50
2019-04-25T11:58:16.913Z,22.46
2019-04-25T11:59:16.965Z,22.61
2019-04-25T12:00:22.195Z,22.64
2019-04-25T12:01:16.994Z,22.75
2019-04-25T12:02:16.920Z,22.75
2019-04-25T12:03:16.985Z,22.75
2019-04-25T12:04:16.985Z,22.80
2019-04-25T12:05:16.974Z,22.88
2019-04-25T12:06:16.990Z,23.00
2019-04-25T12:07:16.928Z,23.15
2019-04-25T12:08:16.983Z,23.23
2019-04-25T12:09:16.985Z,23.11
2019-04-25T12:10:16.922Z,23.04
2019-04-25T12:11:16.986Z,23.13
2019-04-25T12:12:16.921Z,23.31
2019-04-25T12:13:16.925Z,23.08
2019-04-25T12:14:16.926Z,22.93
2019-04-25T12:15:17.007Z,22.83
2019-04-25T12:16:16.928Z,22.91
2019-04-25T12:17:17.001Z,23.08
2019-04-25T12:18:17.001Z,23.13
2019-04-25T12:19:16.998Z,23.19
2019-04-25T12:20:17.004Z,23.31
2019-04-25T12:21:16.930Z,23.42
2019-04-25T12:22:16.927Z,23.44
2019-04-25T12:23:16.999Z,23.57
2019-04-25T12:24:16.996Z,23.45
2019-04-25T12:25:16.928Z,23.37
2019-04-25T12:26:16.913Z,23.20
2019-04-25T12:28:16.991Z,23.19
2019-04-25T12:29:16.993Z,23.33
2019-04-25T12:30:16.989Z,23.44
2019-04-25T12:31:16.994Z,23.42
2019-04-25T12:32:16.905Z,23.33
2019-04-25T12:33:21.037Z,23.27
2019-04-25T12:34:16.928Z,23.31
2019-04-25T12:35:17.001Z,23.35
2019-04-25T12:36:17.009Z,23.50
2019-04-25T12:37:16.942Z,23.63
2019-04-25T12:38:16.942Z,23.75
2019-04-25T12:39:16.945Z,23.82
2019-04-25T12:40:17.008Z,23.82
2019-04-25T12:41:16.943Z,23.80
2019-04-25T12:42:16.942Z,23.71
2019-04-25T12:43:17.025Z,23.72
2019-04-25T12:44:17.008Z,23.71
2019-04-25T12:45:16.949Z,23.61
2019-04-25T12:46:17.017Z,23.74
2019-04-25T12:47:16.952Z,23.61
2019-04-25T12:48:17.018Z,23.42
2019-04-25T12:49:17.016Z,23.34
2019-04-25T12:50:18.712Z,23.45
2019-04-25T12:51:17.018Z,23.60
2019-04-25T12:52:16.951Z,23.68
2019-04-25T12:53:17.040Z,23.63
2019-04-25T12:54:17.018Z,23.54
2019-04-25T12:55:16.952Z,23.44
2019-04-25T12:56:16.934Z,23.45
2019-04-25T12:57:16.941Z,23.67
2019-04-25T12:58:17.015Z,23.82
2019-04-25T12:59:17.009Z,24.05
2019-04-25T13:00:16.955Z,24.20
2019-04-25T13:01:16.940Z,24.57
2019-04-25T13:02:16.942Z,25.04
2019-04-25T13:03:17.014Z,25.15